sensor_id;sensor_type;location;lat;lon;timestamp;P1;durP1;ratioP1;P2;durP2;ratioP2
10150;SDS011;5116;52.318;4.644;2023-02-28T00:00:00;1.60;;;1.50;;
10150;SDS011;5116;52.318;4.644;2023-02-28T00:02:35;3.53;;;1.87;;
10150;SDS011;5116;52.318;4.644;2023-02-28T00:05:03;1.90;;;1.70;;
10150;SDS011;5116;52.318;4.644;2023-02-28T00:07:31;1.53;;;1.43;;
10150;SDS011;5116;52.318;4.644;2023-02-28T00:09:58;1.70;;;1.60;;
10150;SDS011;5116;52.318;4.644;2023-02-28T00:12:26;1.93;;;1.70;;
10150;SDS011;5116;52.318;4.644;2023-02-28T00:14:54;1.57;;;1.47;;
10150;SDS011;5116;52.318;4.644;2023-02-28T00:17:22;1.60;;;1.50;;
10150;SDS011;5116;52.318;4.644;2023-02-28T00:19:50;1.97;;;1.67;;
10150;SDS011;5116;52.318;4.644;2023-02-28T00:22:19;1.83;;;1.73;;
10150;SDS011;5116;52.318;4.644;2023-02-28T00:24:47;2.03;;;1.83;;
10150;SDS011;5116;52.318;4.644;2023-02-28T00:27:14;1.47;;;1.37;;
10150;SDS011;5116;52.318;4.644;2023-02-28T00:29:42;1.80;;;1.70;;
10150;SDS011;5116;52.318;4.644;2023-02-28T00:32:10;1.63;;;1.53;;
10150;SDS011;5116;52.318;4.644;2023-02-28T00:34:37;1.70;;;1.60;;
10150;SDS011;5116;52.318;4.644;2023-02-28T00:37:05;1.93;;;1.73;;
10150;SDS011;5116;52.318;4.644;2023-02-28T00:39:34;3.13;;;1.83;;
10150;SDS011;5116;52.318;4.644;2023-02-28T00:42:01;2.10;;;1.87;;
10150;SDS011;5116;52.318;4.644;2023-02-28T00:44:30;1.87;;;1.70;;
10150;SDS011;5116;52.318;4.644;2023-02-28T00:46:58;1.40;;;1.30;;
10150;SDS011;5116;52.318;4.644;2023-02-28T00:49:26;1.53;;;1.43;;
10150;SDS011;5116;52.318;4.644;2023-02-28T00:51:54;2.27;;;1.57;;
10150;SDS011;5116;52.318;4.644;2023-02-28T00:54:22;1.63;;;1.53;;
10150;SDS011;5116;52.318;4.644;2023-02-28T00:56:49;3.40;;;1.80;;
10150;SDS011;5116;52.318;4.644;2023-02-28T00:59:17;1.50;;;1.30;;
10150;SDS011;5116;52.318;4.644;2023-02-28T01:01:45;2.00;;;1.43;;
10150;SDS011;5116;52.318;4.644;2023-02-28T01:04:13;2.00;;;1.60;;
10150;SDS011;5116;52.318;4.644;2023-02-28T01:06:41;1.73;;;1.63;;
10150;SDS011;5116;52.318;4.644;2023-02-28T01:09:09;1.63;;;1.53;;
10150;SDS011;5116;52.318;4.644;2023-02-28T01:11:37;1.40;;;1.30;;
10150;SDS011;5116;52.318;4.644;2023-02-28T01:14:07;1.53;;;1.30;;
10150;SDS011;5116;52.318;4.644;2023-02-28T01:16:35;2.27;;;1.53;;
10150;SDS011;5116;52.318;4.644;2023-02-28T01:19:03;1.53;;;1.43;;
10150;SDS011;5116;52.318;4.644;2023-02-28T01:21:30;2.03;;;1.70;;
10150;SDS011;5116;52.318;4.644;2023-02-28T01:23:58;1.50;;;1.40;;
10150;SDS011;5116;52.318;4.644;2023-02-28T01:26:25;3.57;;;1.63;;
10150;SDS011;5116;52.318;4.644;2023-02-28T01:28:53;4.23;;;1.40;;
10150;SDS011;5116;52.318;4.644;2023-02-28T01:31:21;2.50;;;1.60;;
10150;SDS011;5116;52.318;4.644;2023-02-28T01:33:51;1.93;;;1.60;;
10150;SDS011;5116;52.318;4.644;2023-02-28T01:36:20;1.70;;;1.33;;
10150;SDS011;5116;52.318;4.644;2023-02-28T01:38:48;1.77;;;1.43;;
10150;SDS011;5116;52.318;4.644;2023-02-28T01:41:19;1.50;;;1.33;;
10150;SDS011;5116;52.318;4.644;2023-02-28T01:46:15;1.80;;;1.70;;
10150;SDS011;5116;52.318;4.644;2023-02-28T01:48:46;1.60;;;1.33;;
10150;SDS011;5116;52.318;4.644;2023-02-28T01:51:16;1.73;;;1.53;;
10150;SDS011;5116;52.318;4.644;2023-02-28T01:53:45;1.50;;;1.40;;
10150;SDS011;5116;52.318;4.644;2023-02-28T01:56:16;1.57;;;1.43;;
10150;SDS011;5116;52.318;4.644;2023-02-28T01:58:52;1.50;;;1.40;;
10150;SDS011;5116;52.318;4.644;2023-02-28T02:01:20;2.07;;;1.97;;
10150;SDS011;5116;52.318;4.644;2023-02-28T02:03:50;2.03;;;1.80;;
10150;SDS011;5116;52.318;4.644;2023-02-28T02:06:33;2.03;;;1.60;;
10150;SDS011;5116;52.318;4.644;2023-02-28T02:09:01;3.83;;;1.60;;
10150;SDS011;5116;52.318;4.644;2023-02-28T02:11:29;2.03;;;1.40;;
10150;SDS011;5116;52.318;4.644;2023-02-28T02:19:46;1.50;;;1.40;;
10150;SDS011;5116;52.318;4.644;2023-02-28T02:27:33;1.90;;;1.80;;
10150;SDS011;5116;52.318;4.644;2023-02-28T02:30:17;1.47;;;1.37;;
10150;SDS011;5116;52.318;4.644;2023-02-28T02:35:47;3.00;;;1.40;;
10150;SDS011;5116;52.318;4.644;2023-02-28T02:38:19;2.23;;;1.57;;
10150;SDS011;5116;52.318;4.644;2023-02-28T02:40:56;1.87;;;1.77;;
10150;SDS011;5116;52.318;4.644;2023-02-28T02:43:32;2.20;;;1.83;;
10150;SDS011;5116;52.318;4.644;2023-02-28T02:46:04;1.50;;;1.40;;
10150;SDS011;5116;52.318;4.644;2023-02-28T02:48:34;1.47;;;1.37;;
10150;SDS011;5116;52.318;4.644;2023-02-28T02:51:04;2.77;;;1.57;;
10150;SDS011;5116;52.318;4.644;2023-02-28T02:53:50;1.47;;;1.37;;
10150;SDS011;5116;52.318;4.644;2023-02-28T02:56:19;1.83;;;1.73;;
10150;SDS011;5116;52.318;4.644;2023-02-28T02:58:48;1.50;;;1.40;;
10150;SDS011;5116;52.318;4.644;2023-02-28T03:01:21;1.57;;;1.47;;
10150;SDS011;5116;52.318;4.644;2023-02-28T03:03:55;2.57;;;2.23;;
10150;SDS011;5116;52.318;4.644;2023-02-28T03:06:24;3.00;;;1.60;;
10150;SDS011;5116;52.318;4.644;2023-02-28T03:08:52;3.33;;;2.00;;
10150;SDS011;5116;52.318;4.644;2023-02-28T03:11:21;1.70;;;1.60;;
10150;SDS011;5116;52.318;4.644;2023-02-28T03:16:49;1.80;;;1.70;;
10150;SDS011;5116;52.318;4.644;2023-02-28T03:21:59;2.37;;;1.70;;
10150;SDS011;5116;52.318;4.644;2023-02-28T03:27:09;1.60;;;1.50;;
10150;SDS011;5116;52.318;4.644;2023-02-28T03:29:39;3.67;;;1.80;;
10150;SDS011;5116;52.318;4.644;2023-02-28T03:34:53;3.13;;;2.03;;
10150;SDS011;5116;52.318;4.644;2023-02-28T03:37:22;3.10;;;1.93;;
10150;SDS011;5116;52.318;4.644;2023-02-28T03:39:56;2.30;;;1.67;;
10150;SDS011;5116;52.318;4.644;2023-02-28T03:42:26;1.93;;;1.63;;
10150;SDS011;5116;52.318;4.644;2023-02-28T03:44:58;2.00;;;1.90;;
10150;SDS011;5116;52.318;4.644;2023-02-28T03:47:27;1.43;;;1.33;;
10150;SDS011;5116;52.318;4.644;2023-02-28T03:50:01;2.70;;;2.20;;
10150;SDS011;5116;52.318;4.644;2023-02-28T03:52:31;2.13;;;1.93;;
10150;SDS011;5116;52.318;4.644;2023-02-28T03:55:02;2.03;;;1.93;;
10150;SDS011;5116;52.318;4.644;2023-02-28T03:57:40;1.70;;;1.60;;
10150;SDS011;5116;52.318;4.644;2023-02-28T04:02:42;2.53;;;1.77;;
10150;SDS011;5116;52.318;4.644;2023-02-28T04:05:09;2.00;;;1.77;;
10150;SDS011;5116;52.318;4.644;2023-02-28T04:07:37;4.20;;;1.80;;
10150;SDS011;5116;52.318;4.644;2023-02-28T04:10:04;1.67;;;1.57;;
10150;SDS011;5116;52.318;4.644;2023-02-28T04:12:32;1.93;;;1.83;;
10150;SDS011;5116;52.318;4.644;2023-02-28T04:14:59;1.87;;;1.77;;
10150;SDS011;5116;52.318;4.644;2023-02-28T04:17:27;2.00;;;1.80;;
10150;SDS011;5116;52.318;4.644;2023-02-28T04:19:55;1.93;;;1.83;;
10150;SDS011;5116;52.318;4.644;2023-02-28T04:22:23;2.23;;;1.80;;
10150;SDS011;5116;52.318;4.644;2023-02-28T04:24:53;1.90;;;1.73;;
10150;SDS011;5116;52.318;4.644;2023-02-28T04:27:21;4.70;;;2.50;;
10150;SDS011;5116;52.318;4.644;2023-02-28T04:29:48;2.10;;;2.00;;
10150;SDS011;5116;52.318;4.644;2023-02-28T04:32:15;2.23;;;1.73;;
10150;SDS011;5116;52.318;4.644;2023-02-28T04:34:43;2.30;;;2.13;;
10150;SDS011;5116;52.318;4.644;2023-02-28T04:37:10;1.60;;;1.50;;
10150;SDS011;5116;52.318;4.644;2023-02-28T04:39:40;1.60;;;1.50;;
10150;SDS011;5116;52.318;4.644;2023-02-28T04:42:08;1.80;;;1.70;;
10150;SDS011;5116;52.318;4.644;2023-02-28T04:44:35;1.97;;;1.80;;
10150;SDS011;5116;52.318;4.644;2023-02-28T04:47:03;2.10;;;1.93;;
10150;SDS011;5116;52.318;4.644;2023-02-28T04:49:31;2.43;;;2.23;;
10150;SDS011;5116;52.318;4.644;2023-02-28T04:51:59;1.80;;;1.70;;
10150;SDS011;5116;52.318;4.644;2023-02-28T04:54:26;1.67;;;1.57;;
10150;SDS011;5116;52.318;4.644;2023-02-28T04:56:55;2.40;;;2.20;;
10150;SDS011;5116;52.318;4.644;2023-02-28T04:59:22;2.07;;;1.87;;
10150;SDS011;5116;52.318;4.644;2023-02-28T05:01:49;1.77;;;1.67;;
10150;SDS011;5116;52.318;4.644;2023-02-28T05:04:20;3.63;;;1.70;;
10150;SDS011;5116;52.318;4.644;2023-02-28T05:06:48;1.80;;;1.70;;
10150;SDS011;5116;52.318;4.644;2023-02-28T05:09:15;5.27;;;2.10;;
10150;SDS011;5116;52.318;4.644;2023-02-28T05:11:43;4.30;;;2.73;;
10150;SDS011;5116;52.318;4.644;2023-02-28T05:14:11;2.10;;;2.00;;
10150;SDS011;5116;52.318;4.644;2023-02-28T05:16:39;2.57;;;2.17;;
10150;SDS011;5116;52.318;4.644;2023-02-28T05:19:06;1.80;;;1.57;;
10150;SDS011;5116;52.318;4.644;2023-02-28T05:21:35;2.37;;;2.17;;
10150;SDS011;5116;52.318;4.644;2023-02-28T05:24:08;1.83;;;1.73;;
10150;SDS011;5116;52.318;4.644;2023-02-28T05:26:38;1.90;;;1.80;;
10150;SDS011;5116;52.318;4.644;2023-02-28T05:29:06;2.27;;;2.07;;
10150;SDS011;5116;52.318;4.644;2023-02-28T05:31:36;3.57;;;2.17;;
10150;SDS011;5116;52.318;4.644;2023-02-28T05:34:04;1.70;;;1.60;;
10150;SDS011;5116;52.318;4.644;2023-02-28T05:36:31;1.70;;;1.60;;
10150;SDS011;5116;52.318;4.644;2023-02-28T05:38:59;2.23;;;2.03;;
10150;SDS011;5116;52.318;4.644;2023-02-28T05:41:26;1.73;;;1.63;;
10150;SDS011;5116;52.318;4.644;2023-02-28T05:44:00;2.20;;;2.00;;
10150;SDS011;5116;52.318;4.644;2023-02-28T05:46:27;1.97;;;1.77;;
10150;SDS011;5116;52.318;4.644;2023-02-28T05:48:55;2.37;;;2.03;;
10150;SDS011;5116;52.318;4.644;2023-02-28T05:51:24;1.70;;;1.60;;
10150;SDS011;5116;52.318;4.644;2023-02-28T05:53:52;2.17;;;1.97;;
10150;SDS011;5116;52.318;4.644;2023-02-28T05:56:21;2.03;;;1.93;;
10150;SDS011;5116;52.318;4.644;2023-02-28T05:58:48;2.60;;;1.60;;
10150;SDS011;5116;52.318;4.644;2023-02-28T06:03:56;2.07;;;1.80;;
10150;SDS011;5116;52.318;4.644;2023-02-28T06:06:24;2.70;;;1.90;;
10150;SDS011;5116;52.318;4.644;2023-02-28T06:08:51;1.70;;;1.60;;
10150;SDS011;5116;52.318;4.644;2023-02-28T06:11:18;2.60;;;2.40;;
10150;SDS011;5116;52.318;4.644;2023-02-28T06:13:47;2.90;;;2.10;;
10150;SDS011;5116;52.318;4.644;2023-02-28T06:16:14;2.00;;;1.83;;
10150;SDS011;5116;52.318;4.644;2023-02-28T06:18:42;1.60;;;1.50;;
10150;SDS011;5116;52.318;4.644;2023-02-28T06:21:10;1.70;;;1.60;;
10150;SDS011;5116;52.318;4.644;2023-02-28T06:23:39;3.00;;;2.13;;
10150;SDS011;5116;52.318;4.644;2023-02-28T06:26:06;3.00;;;2.27;;
10150;SDS011;5116;52.318;4.644;2023-02-28T06:28:34;2.20;;;2.00;;
10150;SDS011;5116;52.318;4.644;2023-02-28T06:31:09;3.43;;;2.50;;
10150;SDS011;5116;52.318;4.644;2023-02-28T06:33:38;3.53;;;2.60;;
10150;SDS011;5116;52.318;4.644;2023-02-28T06:36:06;1.77;;;1.67;;
10150;SDS011;5116;52.318;4.644;2023-02-28T06:38:33;3.40;;;2.10;;
10150;SDS011;5116;52.318;4.644;2023-02-28T06:41:01;2.17;;;1.97;;
10150;SDS011;5116;52.318;4.644;2023-02-28T06:43:29;2.33;;;1.83;;
10150;SDS011;5116;52.318;4.644;2023-02-28T06:45:58;2.20;;;2.00;;
10150;SDS011;5116;52.318;4.644;2023-02-28T06:48:26;2.10;;;2.00;;
10150;SDS011;5116;52.318;4.644;2023-02-28T06:51:01;2.57;;;2.10;;
10150;SDS011;5116;52.318;4.644;2023-02-28T06:53:28;2.30;;;2.00;;
10150;SDS011;5116;52.318;4.644;2023-02-28T06:55:59;1.80;;;1.70;;
10150;SDS011;5116;52.318;4.644;2023-02-28T06:58:26;4.10;;;3.00;;
10150;SDS011;5116;52.318;4.644;2023-02-28T07:00:54;2.60;;;2.13;;
10150;SDS011;5116;52.318;4.644;2023-02-28T07:03:23;2.97;;;2.43;;
10150;SDS011;5116;52.318;4.644;2023-02-28T07:05:50;2.23;;;2.03;;
10150;SDS011;5116;52.318;4.644;2023-02-28T07:08:18;3.30;;;2.57;;
10150;SDS011;5116;52.318;4.644;2023-02-28T07:10:46;3.17;;;2.60;;
10150;SDS011;5116;52.318;4.644;2023-02-28T07:13:13;2.77;;;2.33;;
10150;SDS011;5116;52.318;4.644;2023-02-28T07:15:41;2.63;;;2.20;;
10150;SDS011;5116;52.318;4.644;2023-02-28T07:18:09;3.77;;;3.10;;
10150;SDS011;5116;52.318;4.644;2023-02-28T07:20:37;3.17;;;2.27;;
10150;SDS011;5116;52.318;4.644;2023-02-28T07:23:05;3.17;;;2.47;;
10150;SDS011;5116;52.318;4.644;2023-02-28T07:25:32;3.97;;;2.73;;
10150;SDS011;5116;52.318;4.644;2023-02-28T07:28:00;3.30;;;3.00;;
10150;SDS011;5116;52.318;4.644;2023-02-28T07:30:27;3.70;;;2.50;;
10150;SDS011;5116;52.318;4.644;2023-02-28T07:32:55;2.47;;;2.27;;
10150;SDS011;5116;52.318;4.644;2023-02-28T07:35:23;2.80;;;2.27;;
10150;SDS011;5116;52.318;4.644;2023-02-28T07:37:51;2.43;;;2.23;;
10150;SDS011;5116;52.318;4.644;2023-02-28T07:40:19;3.53;;;2.83;;
10150;SDS011;5116;52.318;4.644;2023-02-28T07:42:49;3.13;;;2.07;;
10150;SDS011;5116;52.318;4.644;2023-02-28T07:45:17;3.40;;;2.40;;
10150;SDS011;5116;52.318;4.644;2023-02-28T07:47:44;2.43;;;2.10;;
10150;SDS011;5116;52.318;4.644;2023-02-28T07:50:13;2.40;;;2.20;;
10150;SDS011;5116;52.318;4.644;2023-02-28T07:52:43;2.90;;;2.30;;
10150;SDS011;5116;52.318;4.644;2023-02-28T07:55:11;2.23;;;2.03;;
10150;SDS011;5116;52.318;4.644;2023-02-28T07:57:40;2.57;;;2.20;;
10150;SDS011;5116;52.318;4.644;2023-02-28T08:00:08;3.73;;;2.50;;
10150;SDS011;5116;52.318;4.644;2023-02-28T08:02:39;3.30;;;2.60;;
10150;SDS011;5116;52.318;4.644;2023-02-28T08:05:07;2.77;;;2.37;;
10150;SDS011;5116;52.318;4.644;2023-02-28T08:07:35;3.17;;;2.10;;
10150;SDS011;5116;52.318;4.644;2023-02-28T08:10:03;2.40;;;2.20;;
10150;SDS011;5116;52.318;4.644;2023-02-28T08:12:32;4.70;;;2.13;;
10150;SDS011;5116;52.318;4.644;2023-02-28T08:15:00;4.13;;;2.13;;
10150;SDS011;5116;52.318;4.644;2023-02-28T08:17:28;3.27;;;2.83;;
10150;SDS011;5116;52.318;4.644;2023-02-28T08:19:58;3.77;;;2.60;;
10150;SDS011;5116;52.318;4.644;2023-02-28T08:22:26;2.33;;;1.80;;
10150;SDS011;5116;52.318;4.644;2023-02-28T08:24:56;1.97;;;1.87;;
10150;SDS011;5116;52.318;4.644;2023-02-28T08:27:24;3.23;;;2.37;;
10150;SDS011;5116;52.318;4.644;2023-02-28T08:29:52;2.43;;;2.23;;
10150;SDS011;5116;52.318;4.644;2023-02-28T08:32:19;2.53;;;2.33;;
10150;SDS011;5116;52.318;4.644;2023-02-28T08:34:58;3.50;;;2.53;;
10150;SDS011;5116;52.318;4.644;2023-02-28T08:37:25;2.30;;;2.10;;
10150;SDS011;5116;52.318;4.644;2023-02-28T08:39:53;3.70;;;2.30;;
10150;SDS011;5116;52.318;4.644;2023-02-28T08:42:24;2.57;;;2.20;;
10150;SDS011;5116;52.318;4.644;2023-02-28T08:44:52;3.27;;;2.27;;
10150;SDS011;5116;52.318;4.644;2023-02-28T08:47:19;2.90;;;2.60;;
10150;SDS011;5116;52.318;4.644;2023-02-28T08:49:46;2.63;;;2.07;;
10150;SDS011;5116;52.318;4.644;2023-02-28T08:52:14;2.33;;;2.03;;
10150;SDS011;5116;52.318;4.644;2023-02-28T08:54:44;2.20;;;2.10;;
10150;SDS011;5116;52.318;4.644;2023-02-28T08:57:12;2.10;;;1.90;;
10150;SDS011;5116;52.318;4.644;2023-02-28T08:59:40;2.53;;;2.33;;
10150;SDS011;5116;52.318;4.644;2023-02-28T09:02:08;2.50;;;2.30;;
10150;SDS011;5116;52.318;4.644;2023-02-28T09:04:36;2.50;;;2.30;;
10150;SDS011;5116;52.318;4.644;2023-02-28T09:07:03;2.57;;;2.37;;
10150;SDS011;5116;52.318;4.644;2023-02-28T09:09:31;2.37;;;2.07;;
10150;SDS011;5116;52.318;4.644;2023-02-28T09:11:58;2.73;;;2.37;;
10150;SDS011;5116;52.318;4.644;2023-02-28T09:14:26;2.57;;;2.37;;
10150;SDS011;5116;52.318;4.644;2023-02-28T09:16:53;2.27;;;2.10;;
10150;SDS011;5116;52.318;4.644;2023-02-28T09:19:21;2.83;;;2.63;;
10150;SDS011;5116;52.318;4.644;2023-02-28T09:21:48;2.40;;;2.20;;
10150;SDS011;5116;52.318;4.644;2023-02-28T09:24:16;2.20;;;2.00;;
10150;SDS011;5116;52.318;4.644;2023-02-28T09:26:44;3.47;;;2.95;;
10150;SDS011;5116;52.318;4.644;2023-02-28T09:29:30;2.67;;;2.30;;
10150;SDS011;5116;52.318;4.644;2023-02-28T09:31:57;2.67;;;2.43;;
10150;SDS011;5116;52.318;4.644;2023-02-28T09:34:26;2.60;;;2.40;;
10150;SDS011;5116;52.318;4.644;2023-02-28T09:36:53;2.40;;;2.20;;
10150;SDS011;5116;52.318;4.644;2023-02-28T09:39:21;2.73;;;2.53;;
10150;SDS011;5116;52.318;4.644;2023-02-28T09:41:53;2.10;;;2.00;;
10150;SDS011;5116;52.318;4.644;2023-02-28T09:46:57;2.57;;;2.33;;
10150;SDS011;5116;52.318;4.644;2023-02-28T09:49:28;2.30;;;2.07;;
10150;SDS011;5116;52.318;4.644;2023-02-28T09:52:00;2.80;;;2.50;;
10150;SDS011;5116;52.318;4.644;2023-02-28T09:54:29;2.50;;;2.30;;
10150;SDS011;5116;52.318;4.644;2023-02-28T09:56:59;2.40;;;2.20;;
10150;SDS011;5116;52.318;4.644;2023-02-28T09:59:52;2.27;;;2.07;;
10150;SDS011;5116;52.318;4.644;2023-02-28T10:04:50;2.57;;;2.37;;
10150;SDS011;5116;52.318;4.644;2023-02-28T10:09:57;2.57;;;2.37;;
10150;SDS011;5116;52.318;4.644;2023-02-28T10:12:27;2.50;;;2.30;;
10150;SDS011;5116;52.318;4.644;2023-02-28T10:14:56;2.70;;;2.47;;
10150;SDS011;5116;52.318;4.644;2023-02-28T10:17:26;2.07;;;1.97;;
10150;SDS011;5116;52.318;4.644;2023-02-28T10:22:40;2.30;;;2.10;;
10150;SDS011;5116;52.318;4.644;2023-02-28T10:25:17;2.37;;;2.17;;
10150;SDS011;5116;52.318;4.644;2023-02-28T10:27:45;2.57;;;2.17;;
10150;SDS011;5116;52.318;4.644;2023-02-28T10:30:13;1.97;;;1.87;;
10150;SDS011;5116;52.318;4.644;2023-02-28T10:32:42;2.07;;;1.90;;
10150;SDS011;5116;52.318;4.644;2023-02-28T10:35:14;2.23;;;2.07;;
10150;SDS011;5116;52.318;4.644;2023-02-28T10:37:44;2.30;;;1.80;;
10150;SDS011;5116;52.318;4.644;2023-02-28T10:45:23;2.17;;;2.07;;
10150;SDS011;5116;52.318;4.644;2023-02-28T10:50:28;2.00;;;1.90;;
10150;SDS011;5116;52.318;4.644;2023-02-28T10:53:05;2.30;;;2.10;;
10150;SDS011;5116;52.318;4.644;2023-02-28T10:55:34;2.13;;;1.93;;
10150;SDS011;5116;52.318;4.644;2023-02-28T10:58:02;2.43;;;2.23;;
10150;SDS011;5116;52.318;4.644;2023-02-28T11:00:32;2.13;;;1.93;;
10150;SDS011;5116;52.318;4.644;2023-02-28T11:03:00;2.20;;;2.00;;
10150;SDS011;5116;52.318;4.644;2023-02-28T11:05:29;2.87;;;2.30;;
10150;SDS011;5116;52.318;4.644;2023-02-28T11:08:13;3.03;;;2.00;;
10150;SDS011;5116;52.318;4.644;2023-02-28T11:10:48;2.23;;;2.00;;
10150;SDS011;5116;52.318;4.644;2023-02-28T11:13:21;2.17;;;1.97;;
10150;SDS011;5116;52.318;4.644;2023-02-28T11:15:52;1.93;;;1.83;;
10150;SDS011;5116;52.318;4.644;2023-02-28T11:18:23;3.67;;;2.47;;
10150;SDS011;5116;52.318;4.644;2023-02-28T11:20:52;2.10;;;1.93;;
10150;SDS011;5116;52.318;4.644;2023-02-28T11:23:20;2.40;;;2.20;;
10150;SDS011;5116;52.318;4.644;2023-02-28T11:25:49;3.10;;;2.37;;
10150;SDS011;5116;52.318;4.644;2023-02-28T11:28:28;4.50;;;2.20;;
10150;SDS011;5116;52.318;4.644;2023-02-28T11:33:42;2.67;;;2.47;;
10150;SDS011;5116;52.318;4.644;2023-02-28T11:36:16;1.87;;;1.77;;
10150;SDS011;5116;52.318;4.644;2023-02-28T11:38:47;2.87;;;2.23;;
10150;SDS011;5116;52.318;4.644;2023-02-28T11:46:23;2.10;;;2.00;;
10150;SDS011;5116;52.318;4.644;2023-02-28T11:49:04;1.90;;;1.80;;
10150;SDS011;5116;52.318;4.644;2023-02-28T11:51:34;2.07;;;1.97;;
10150;SDS011;5116;52.318;4.644;2023-02-28T12:00:37;1.93;;;1.73;;
10150;SDS011;5116;52.318;4.644;2023-02-28T12:02:49;2.10;;;1.90;;
10150;SDS011;5116;52.318;4.644;2023-02-28T12:05:38;2.27;;;2.17;;
10150;SDS011;5116;52.318;4.644;2023-02-28T12:13:41;2.50;;;2.30;;
10150;SDS011;5116;52.318;4.644;2023-02-28T12:16:26;3.03;;;2.40;;
10150;SDS011;5116;52.318;4.644;2023-02-28T12:19:16;2.10;;;2.00;;
10150;SDS011;5116;52.318;4.644;2023-02-28T12:22:06;2.53;;;2.33;;
10150;SDS011;5116;52.318;4.644;2023-02-28T12:24:44;2.67;;;2.47;;
10150;SDS011;5116;52.318;4.644;2023-02-28T12:27:15;2.80;;;2.60;;
10150;SDS011;5116;52.318;4.644;2023-02-28T12:29:52;3.00;;;2.70;;
10150;SDS011;5116;52.318;4.644;2023-02-28T12:32:29;3.07;;;2.87;;
10150;SDS011;5116;52.318;4.644;2023-02-28T12:35:01;1.97;;;1.87;;
10150;SDS011;5116;52.318;4.644;2023-02-28T12:37:40;2.60;;;2.40;;
10150;SDS011;5116;52.318;4.644;2023-02-28T12:40:11;2.67;;;2.53;;
10150;SDS011;5116;52.318;4.644;2023-02-28T12:42:41;2.50;;;2.40;;
10150;SDS011;5116;52.318;4.644;2023-02-28T12:45:20;3.20;;;2.40;;
10150;SDS011;5116;52.318;4.644;2023-02-28T12:47:49;2.70;;;2.50;;
10150;SDS011;5116;52.318;4.644;2023-02-28T12:50:18;3.03;;;2.73;;
10150;SDS011;5116;52.318;4.644;2023-02-28T12:52:50;2.73;;;2.53;;
10150;SDS011;5116;52.318;4.644;2023-02-28T12:55:23;3.10;;;2.77;;
10150;SDS011;5116;52.318;4.644;2023-02-28T12:57:57;2.40;;;2.30;;
10150;SDS011;5116;52.318;4.644;2023-02-28T13:00:29;2.30;;;2.10;;
10150;SDS011;5116;52.318;4.644;2023-02-28T13:03:23;2.07;;;1.97;;
10150;SDS011;5116;52.318;4.644;2023-02-28T13:06:17;2.60;;;2.40;;
10150;SDS011;5116;52.318;4.644;2023-02-28T13:08:53;2.67;;;2.47;;
10150;SDS011;5116;52.318;4.644;2023-02-28T13:11:28;2.90;;;2.70;;
10150;SDS011;5116;52.318;4.644;2023-02-28T13:13:57;2.17;;;2.07;;
10150;SDS011;5116;52.318;4.644;2023-02-28T13:16:24;3.10;;;2.57;;
10150;SDS011;5116;52.318;4.644;2023-02-28T13:19:07;3.10;;;2.87;;
10150;SDS011;5116;52.318;4.644;2023-02-28T13:21:41;2.67;;;2.40;;
10150;SDS011;5116;52.318;4.644;2023-02-28T13:24:08;3.83;;;2.93;;
10150;SDS011;5116;52.318;4.644;2023-02-28T13:31:31;2.57;;;2.37;;
10150;SDS011;5116;52.318;4.644;2023-02-28T13:36:29;2.90;;;2.70;;
10150;SDS011;5116;52.318;4.644;2023-02-28T13:38:58;2.87;;;2.67;;
10150;SDS011;5116;52.318;4.644;2023-02-28T13:44:10;2.70;;;2.50;;
10150;SDS011;5116;52.318;4.644;2023-02-28T13:49:30;2.70;;;2.50;;
10150;SDS011;5116;52.318;4.644;2023-02-28T13:57:24;2.53;;;2.33;;
10150;SDS011;5116;52.318;4.644;2023-02-28T14:02:41;2.40;;;2.30;;
10150;SDS011;5116;52.318;4.644;2023-02-28T14:05:18;3.03;;;2.70;;
10150;SDS011;5116;52.318;4.644;2023-02-28T14:07:48;2.27;;;2.17;;
10150;SDS011;5116;52.318;4.644;2023-02-28T14:10:41;2.50;;;2.40;;
10150;SDS011;5116;52.318;4.644;2023-02-28T14:16:03;2.67;;;2.47;;
10150;SDS011;5116;52.318;4.644;2023-02-28T14:18:36;2.70;;;2.50;;
10150;SDS011;5116;52.318;4.644;2023-02-28T14:21:24;2.60;;;2.40;;
10150;SDS011;5116;52.318;4.644;2023-02-28T14:24:03;2.30;;;2.20;;
10150;SDS011;5116;52.318;4.644;2023-02-28T14:29:10;2.30;;;2.20;;
10150;SDS011;5116;52.318;4.644;2023-02-28T14:31:55;2.60;;;2.40;;
10150;SDS011;5116;52.318;4.644;2023-02-28T14:37:02;2.10;;;2.00;;
10150;SDS011;5116;52.318;4.644;2023-02-28T14:39:30;2.60;;;2.40;;
10150;SDS011;5116;52.318;4.644;2023-02-28T14:41:59;3.10;;;2.50;;
10150;SDS011;5116;52.318;4.644;2023-02-28T14:44:31;2.53;;;2.03;;
10150;SDS011;5116;52.318;4.644;2023-02-28T14:47:02;2.20;;;2.00;;
10150;SDS011;5116;52.318;4.644;2023-02-28T14:49:34;2.70;;;2.37;;
10150;SDS011;5116;52.318;4.644;2023-02-28T14:52:13;2.30;;;2.17;;
10150;SDS011;5116;52.318;4.644;2023-02-28T14:54:44;2.33;;;2.13;;
10150;SDS011;5116;52.318;4.644;2023-02-28T14:57:21;2.57;;;2.37;;
10150;SDS011;5116;52.318;4.644;2023-02-28T15:02:37;1.90;;;1.80;;
10150;SDS011;5116;52.318;4.644;2023-02-28T15:07:39;2.57;;;2.37;;
10150;SDS011;5116;52.318;4.644;2023-02-28T15:10:28;2.57;;;2.00;;
10150;SDS011;5116;52.318;4.644;2023-02-28T15:12:57;2.40;;;2.20;;
10150;SDS011;5116;52.318;4.644;2023-02-28T15:15:26;3.00;;;2.70;;
10150;SDS011;5116;52.318;4.644;2023-02-28T15:18:06;2.33;;;2.13;;
10150;SDS011;5116;52.318;4.644;2023-02-28T15:20:35;2.70;;;2.50;;
10150;SDS011;5116;52.318;4.644;2023-02-28T15:23:03;2.53;;;2.33;;
10150;SDS011;5116;52.318;4.644;2023-02-28T15:25:33;2.60;;;2.40;;
10150;SDS011;5116;52.318;4.644;2023-02-28T15:28:01;2.43;;;2.23;;
10150;SDS011;5116;52.318;4.644;2023-02-28T15:30:30;2.40;;;2.30;;
10150;SDS011;5116;52.318;4.644;2023-02-28T15:33:03;2.40;;;2.23;;
10150;SDS011;5116;52.318;4.644;2023-02-28T15:35:32;2.20;;;2.00;;
10150;SDS011;5116;52.318;4.644;2023-02-28T15:38:01;2.37;;;2.17;;
10150;SDS011;5116;52.318;4.644;2023-02-28T15:40:32;2.27;;;2.17;;
10150;SDS011;5116;52.318;4.644;2023-02-28T15:43:23;2.40;;;2.20;;
10150;SDS011;5116;52.318;4.644;2023-02-28T15:50:50;2.40;;;2.20;;
10150;SDS011;5116;52.318;4.644;2023-02-28T15:53:23;2.00;;;1.90;;
10150;SDS011;5116;52.318;4.644;2023-02-28T15:55:55;1.90;;;1.80;;
10150;SDS011;5116;52.318;4.644;2023-02-28T15:58:24;2.03;;;1.93;;
10150;SDS011;5116;52.318;4.644;2023-02-28T16:01:00;1.80;;;1.70;;
10150;SDS011;5116;52.318;4.644;2023-02-28T16:03:35;2.03;;;1.80;;
10150;SDS011;5116;52.318;4.644;2023-02-28T16:08:54;2.50;;;2.10;;
10150;SDS011;5116;52.318;4.644;2023-02-28T16:11:21;2.00;;;1.90;;
10150;SDS011;5116;52.318;4.644;2023-02-28T16:13:53;1.80;;;1.70;;
10150;SDS011;5116;52.318;4.644;2023-02-28T16:16:22;3.50;;;2.20;;
10150;SDS011;5116;52.318;4.644;2023-02-28T16:18:50;2.43;;;1.90;;
10150;SDS011;5116;52.318;4.644;2023-02-28T16:21:20;1.87;;;1.77;;
10150;SDS011;5116;52.318;4.644;2023-02-28T16:23:47;2.33;;;2.13;;
10150;SDS011;5116;52.318;4.644;2023-02-28T16:26:21;2.03;;;1.93;;
10150;SDS011;5116;52.318;4.644;2023-02-28T16:28:49;1.83;;;1.73;;
10150;SDS011;5116;52.318;4.644;2023-02-28T16:31:18;2.27;;;2.07;;
10150;SDS011;5116;52.318;4.644;2023-02-28T16:33:45;2.30;;;2.10;;
10150;SDS011;5116;52.318;4.644;2023-02-28T16:36:14;1.90;;;1.80;;
10150;SDS011;5116;52.318;4.644;2023-02-28T16:38:42;2.10;;;2.00;;
10150;SDS011;5116;52.318;4.644;2023-02-28T16:41:14;2.27;;;2.07;;
10150;SDS011;5116;52.318;4.644;2023-02-28T16:43:46;2.57;;;2.20;;
10150;SDS011;5116;52.318;4.644;2023-02-28T16:46:14;1.83;;;1.73;;
10150;SDS011;5116;52.318;4.644;2023-02-28T16:48:43;1.97;;;1.83;;
10150;SDS011;5116;52.318;4.644;2023-02-28T16:51:12;3.10;;;2.27;;
10150;SDS011;5116;52.318;4.644;2023-02-28T16:53:39;1.90;;;1.80;;
10150;SDS011;5116;52.318;4.644;2023-02-28T16:56:12;2.00;;;1.90;;
10150;SDS011;5116;52.318;4.644;2023-02-28T16:58:41;2.40;;;2.20;;
10150;SDS011;5116;52.318;4.644;2023-02-28T17:01:09;2.47;;;2.10;;
10150;SDS011;5116;52.318;4.644;2023-02-28T17:03:36;2.00;;;1.90;;
10150;SDS011;5116;52.318;4.644;2023-02-28T17:06:04;2.00;;;1.90;;
10150;SDS011;5116;52.318;4.644;2023-02-28T17:08:32;1.80;;;1.70;;
10150;SDS011;5116;52.318;4.644;2023-02-28T17:10:59;4.00;;;2.30;;